Time;durP1;ratioP1;P1;durP2;ratioP2;P2;SDS_P1;SDS_P2;PMS_P1;PMS_P2;Temp;Humidity;BMP_temperature;BMP_pressure;BME280_temperature;BME280_humidity;BME280_pressure;Samples;Min_cycle;Max_cycle;Signal;HPM_P1;HPM_P2
2021/07/13 00:00:18;;;;;;;5.63;3.10;;;26.60;99.90;;;;;;5041394;28;20084;-70
2021/07/13 00:02:43;;;;;;;3.20;2.90;;;26.60;99.90;;;;;;5024765;28;20025;-69
2021/07/13 00:05:15;;;;;;;4.90;2.78;;;26.60;99.90;;;;;;5033292;28;20045;-65
2021/07/13 00:07:43;;;;;;;6.25;3.70;;;26.60;99.90;;;;;;5032131;28;20061;-69
2021/07/13 00:10:09;;;;;;;5.57;3.30;;;26.60;99.90;;;;;;5046776;28;20037;-69
2021/07/13 00:12:36;;;;;;;5.15;3.78;;;26.60;99.90;;;;;;5027882;28;20033;-69
2021/07/13 00:15:06;;;;;;;7.47;5.15;;;26.60;99.90;;;;;;5034427;28;20052;-70
2021/07/13 00:17:31;;;;;;;6.90;6.05;;;26.50;99.90;;;;;;5029978;28;20049;-70
2021/07/13 00:19:57;;;;;;;7.28;6.60;;;26.50;99.90;;;;;;5039535;28;20179;-71
2021/07/13 00:22:22;;;;;;;8.95;7.95;;;26.40;99.90;;;;;;5032838;28;20097;-70
2021/07/13 00:24:48;;;;;;;8.25;6.90;;;26.30;99.90;;;;;;5044761;28;20029;-70
2021/07/13 00:27:14;;;;;;;8.05;7.03;;;26.40;99.90;;;;;;5034590;28;20036;-70
2021/07/13 00:29:39;;;;;;;11.10;7.97;;;26.40;99.90;;;;;;5033686;28;20528;-69
2021/07/13 00:32:05;;;;;;;12.05;6.40;;;26.40;99.90;;;;;;5037872;28;20044;-70
2021/07/13 00:34:30;;;;;;;7.57;6.85;;;26.30;99.90;;;;;;5036981;28;20478;-71
2021/07/13 00:36:56;;;;;;;7.70;6.85;;;26.30;99.90;;;;;;5028431;28;20120;-70
2021/07/13 00:39:22;;;;;;;6.97;6.20;;;26.40;99.90;;;;;;5026526;28;20034;-70
2021/07/13 00:41:47;;;;;;;7.78;7.07;;;26.40;99.90;;;;;;5030000;28;20824;-70
2021/07/13 00:44:13;;;;;;;8.23;6.60;;;26.30;99.90;;;;;;5039288;28;20037;-70
2021/07/13 00:46:45;;;;;;;8.18;7.40;;;26.30;99.90;;;;;;5034854;28;20103;-70
2021/07/13 00:49:13;;;;;;;7.15;6.45;;;26.30;99.90;;;;;;5042096;28;20043;-70
2021/07/13 00:51:39;;;;;;;7.75;5.97;;;26.40;99.90;;;;;;5038077;28;20029;-65
2021/07/13 00:54:06;;;;;;;6.38;5.85;;;26.30;99.90;;;;;;5037533;28;20501;-71
2021/07/13 00:56:36;;;;;;;6.30;5.70;;;26.40;99.90;;;;;;5039703;28;20053;-70
2021/07/13 00:59:02;;;;;;;9.27;6.75;;;26.30;99.90;;;;;;5035793;28;20151;-71
2021/07/13 01:01:28;;;;;;;11.32;6.35;;;26.30;99.90;;;;;;5032090;28;20396;-70
2021/07/13 01:03:53;;;;;;;9.68;6.03;;;26.20;99.90;;;;;;5021251;28;20045;-70
2021/07/13 01:06:21;;;;;;;6.65;5.10;;;26.30;99.90;;;;;;5033905;28;20087;-70
2021/07/13 01:09:00;;;;;;;7.22;6.03;;;26.20;99.90;;;;;;5034906;28;20124;-71
2021/07/13 01:11:46;;;;;;;6.82;5.80;;;26.20;99.90;;;;;;5046054;28;20069;-70
2021/07/13 01:14:23;;;;;;;7.57;6.22;;;26.10;99.90;;;;;;5033604;28;20487;-69
2021/07/13 01:17:10;;;;;;;8.30;5.55;;;26.10;99.90;;;;;;5029639;28;20049;-71
2021/07/13 01:19:39;;;;;;;8.10;6.00;;;26.20;99.90;;;;;;5019029;28;20049;-71
2021/07/13 01:22:13;;;;;;;8.32;6.22;;;26.10;99.90;;;;;;5029185;28;20037;-70
2021/07/13 01:25:00;;;;;;;7.93;6.20;;;26.10;99.90;;;;;;5024251;28;20040;-59
2021/07/13 01:27:42;;;;;;;9.05;5.97;;;26.10;99.90;;;;;;5032403;28;20049;-70
2021/07/13 01:30:16;;;;;;;9.40;6.43;;;26.10;99.90;;;;;;5047109;28;20454;-70
2021/07/13 01:32:44;;;;;;;;;;;26.10;99.90;;;;;;5050262;28;20091;-70
2021/07/13 01:35:15;;;;;;;7.50;6.15;;;26.00;99.90;;;;;;5045683;28;19916;-70
2021/07/13 01:37:44;;;;;;;7.80;6.47;;;26.00;99.90;;;;;;5031054;28;20112;-70
2021/07/13 01:40:11;;;;;;;8.02;7.00;;;26.00;99.90;;;;;;5026988;28;20040;-70
2021/07/13 01:42:40;;;;;;;7.00;6.40;;;26.10;99.90;;;;;;5035995;28;20033;-71
2021/07/13 01:45:07;;;;;;;6.88;5.60;;;26.10;99.90;;;;;;5030631;28;20029;-70
2021/07/13 01:47:38;;;;;;;8.02;7.18;;;26.00;99.90;;;;;;5044283;28;20538;-71
2021/07/13 01:50:08;;;;;;;7.15;6.45;;;26.00;99.90;;;;;;5044903;28;20095;-70
2021/07/13 01:52:35;;;;;;;7.07;6.40;;;26.00;99.90;;;;;;5041133;28;20037;-71
2021/07/13 01:55:05;;;;;;;7.95;7.30;;;26.00;99.90;;;;;;5030802;28;20036;-70
2021/07/13 01:57:33;;;;;;;7.53;6.63;;;26.00;99.90;;;;;;5034195;28;20052;-70
2021/07/13 02:00:00;;;;;;;8.05;7.10;;;26.00;99.90;;;;;;5048977;28;20045;-70
2021/07/13 02:02:29;;;;;;;8.20;7.50;;;26.00;99.90;;;;;;5032224;28;20072;-71
2021/07/13 02:04:58;;;;;;;7.88;7.07;;;26.00;99.90;;;;;;5036007;28;20061;-71
2021/07/13 02:07:25;;;;;;;8.18;7.38;;;26.00;99.90;;;;;;5046219;28;20444;-70
2021/07/13 02:09:52;;;;;;;8.77;7.82;;;25.80;99.90;;;;;;5020665;28;20081;-70
2021/07/13 02:12:17;;;;;;;7.97;7.28;;;25.80;99.90;;;;;;5026512;28;20049;-70
2021/07/13 02:14:44;;;;;;;9.40;8.45;;;25.80;99.90;;;;;;5030861;28;20406;-71
2021/07/13 02:17:10;;;;;;;10.20;7.90;;;25.80;99.90;;;;;;5024920;28;20132;-67
2021/07/13 02:19:36;;;;;;;9.85;8.23;;;25.90;99.90;;;;;;5042772;28;20128;-70
2021/07/13 02:22:03;;;;;;;9.93;8.57;;;25.80;99.90;;;;;;5026551;28;20115;-71
2021/07/13 02:24:28;;;;;;;9.55;8.45;;;25.80;99.90;;;;;;5052681;28;20041;-71
2021/07/13 02:27:06;;;;;;;8.98;8.15;;;25.80;99.90;;;;;;5036964;28;20483;-71
2021/07/13 02:30:08;;;;;;;11.65;8.98;;;25.80;99.90;;;;;;5035690;28;20064;-71
2021/07/13 02:32:51;;;;;;;13.00;8.43;;;25.80;99.90;;;;;;4952615;28;20381;-72
2021/07/13 02:35:19;;;;;;;10.45;7.80;;;25.80;99.90;;;;;;4999937;28;20037;-71
2021/07/13 02:37:47;;;;;;;10.93;9.93;;;25.70;99.90;;;;;;5028050;28;20045;-71
2021/07/13 02:40:14;;;;;;;10.35;9.40;;;25.60;99.90;;;;;;5039811;28;20517;-71
2021/07/13 02:42:47;;;;;;;12.20;10.15;;;25.60;99.90;;;;;;5026429;28;20375;-70
2021/07/13 02:45:15;;;;;;;12.35;10.45;;;25.60;99.90;;;;;;5032482;28;20383;-71
2021/07/13 02:47:46;;;;;;;13.38;10.13;;;25.50;99.90;;;;;;5036908;28;20096;-71
2021/07/13 02:50:15;;;;;;;10.32;9.35;;;25.60;99.90;;;;;;5043869;28;20040;-71
2021/07/13 02:52:41;;;;;;;10.70;9.70;;;25.50;99.90;;;;;;5041742;28;20336;-71
2021/07/13 02:55:13;;;;;;;10.80;9.65;;;25.70;99.90;;;;;;5047195;28;20045;-71
2021/07/13 02:57:39;;;;;;;11.43;10.40;;;25.60;99.90;;;;;;5040193;28;20509;-71
2021/07/13 03:00:08;;;;;;;13.65;10.43;;;25.50;99.90;;;;;;5032401;28;20505;-71
2021/07/13 03:02:35;;;;;;;12.32;11.07;;;25.50;99.90;;;;;;5029187;28;20037;-71
2021/07/13 03:05:02;;;;;;;11.73;10.13;;;25.40;99.90;;;;;;5033507;28;20036;-71
2021/07/13 03:07:28;;;;;;;11.55;10.20;;;25.40;99.90;;;;;;5026480;28;20076;-72
2021/07/13 03:09:54;;;;;;;16.50;11.40;;;25.40;99.90;;;;;;5035096;28;20072;-72
2021/07/13 03:12:20;;;;;;;14.05;11.50;;;25.40;99.90;;;;;;5048968;28;20040;-72
2021/07/13 03:14:46;;;;;;;13.93;10.30;;;25.40;99.90;;;;;;5033911;28;20036;-71
2021/07/13 03:17:16;;;;;;;12.73;9.82;;;25.40;99.90;;;;;;5053367;28;20121;-71
2021/07/13 03:19:44;;;;;;;11.27;9.77;;;25.40;99.90;;;;;;5043245;28;20044;-71
2021/07/13 03:22:24;;;;;;;11.93;10.77;;;25.30;99.90;;;;;;5041864;28;20056;-56
2021/07/13 03:24:52;;;;;;;11.70;10.55;;;25.20;99.90;;;;;;5032545;28;20045;-71
2021/07/13 03:27:20;;;;;;;12.43;10.82;;;25.20;99.90;;;;;;5030846;28;20123;-71
2021/07/13 03:29:48;;;;;;;12.48;10.05;;;25.10;99.90;;;;;;5031115;28;20041;-71
2021/07/13 03:32:16;;;;;;;11.48;10.27;;;25.20;99.90;;;;;;5031014;28;20107;-71
2021/07/13 03:34:44;;;;;;;12.63;11.32;;;25.10;99.90;;;;;;5029292;28;20041;-71
2021/07/13 03:37:10;;;;;;;13.32;12.02;;;25.10;99.90;;;;;;5038127;28;20566;-67
2021/07/13 03:39:37;;;;;;;13.05;11.27;;;25.10;99.90;;;;;;5035173;28;20116;-71
2021/07/13 03:42:03;;;;;;;12.48;11.18;;;25.10;99.90;;;;;;5027694;28;20107;-71
2021/07/13 03:44:30;;;;;;;12.63;11.52;;;25.10;99.90;;;;;;5043803;28;20090;-71
2021/07/13 03:46:56;;;;;;;12.38;11.07;;;25.10;99.90;;;;;;5042680;28;20037;-71
2021/07/13 03:49:24;;;;;;;13.40;11.32;;;25.10;99.90;;;;;;5022977;28;20049;-71
2021/07/13 03:51:50;;;;;;;13.32;11.20;;;25.00;99.90;;;;;;5039927;28;20389;-72
2021/07/13 03:54:18;;;;;;;12.73;11.40;;;25.00;99.90;;;;;;5043347;28;20045;-72
2021/07/13 03:56:46;;;;;;;11.80;10.63;;;25.10;99.90;;;;;;5012510;28;20041;-71
2021/07/13 03:59:12;;;;;;;14.80;11.18;;;25.00;99.90;;;;;;5040055;28;20037;-72
2021/07/13 04:01:38;;;;;;;13.18;11.45;;;25.10;99.90;;;;;;5041761;28;20037;-71
2021/07/13 04:04:05;;;;;;;13.50;11.63;;;25.10;99.90;;;;;;5029859;28;20122;-72
2021/07/13 04:06:31;;;;;;;14.35;11.60;;;25.10;99.90;;;;;;5032611;28;20492;-71
2021/07/13 04:08:58;;;;;;;12.68;10.68;;;25.10;99.90;;;;;;5030571;28;20033;-72
2021/07/13 04:11:23;;;;;;;16.45;11.88;;;25.10;99.90;;;;;;5024543;28;20065;-71
2021/07/13 04:13:49;;;;;;;13.30;12.00;;;25.20;99.90;;;;;;5023918;28;20038;-72
2021/07/13 04:16:14;;;;;;;12.18;10.93;;;25.10;99.90;;;;;;5026624;28;20045;-71
2021/07/13 04:18:41;;;;;;;11.95;10.60;;;25.00;99.90;;;;;;5036422;28;20473;-72
2021/07/13 04:21:07;;;;;;;13.30;11.00;;;25.10;99.90;;;;;;5024011;28;20036;-72
2021/07/13 04:23:33;;;;;;;14.35;10.88;;;25.10;99.90;;;;;;5039077;28;20391;-72
2021/07/13 04:25:59;;;;;;;13.70;12.30;;;25.10;99.90;;;;;;5025616;28;20471;-72
2021/07/13 04:28:26;;;;;;;14.85;12.02;;;25.00;99.90;;;;;;5041011;28;20098;-73
2021/07/13 04:30:52;;;;;;;14.45;11.85;;;25.00;99.90;;;;;;5046645;28;20150;-73
2021/07/13 04:33:19;;;;;;;15.25;13.07;;;24.90;99.90;;;;;;5039269;28;20527;-72
2021/07/13 04:35:47;;;;;;;13.45;12.07;;;24.90;99.90;;;;;;5044613;28;20049;-71
2021/07/13 04:38:13;;;;;;;14.23;12.82;;;25.00;99.90;;;;;;5029855;28;20052;-67
2021/07/13 04:40:38;;;;;;;15.65;12.48;;;25.00;99.90;;;;;;5048070;28;20037;-72
2021/07/13 04:43:04;;;;;;;14.38;12.35;;;25.00;99.90;;;;;;5039330;28;20124;-72
2021/07/13 04:45:29;;;;;;;14.85;13.23;;;24.90;99.90;;;;;;5035668;28;20395;-72
2021/07/13 04:47:55;;;;;;;14.65;13.15;;;25.00;99.90;;;;;;5018330;28;20037;-72
2021/07/13 04:50:21;;;;;;;14.90;13.27;;;24.90;99.90;;;;;;5040747;28;20038;-72
2021/07/13 04:52:46;;;;;;;15.25;13.70;;;25.00;99.90;;;;;;5021099;28;20029;-71
2021/07/13 04:55:17;;;;;;;15.07;12.93;;;25.00;99.90;;;;;;5038012;28;20041;-71
2021/07/13 04:57:44;;;;;;;14.82;13.43;;;25.10;99.90;;;;;;5022690;28;20090;-69
2021/07/13 05:00:10;;;;;;;13.73;12.38;;;25.20;99.90;;;;;;5034205;28;20034;-71
2021/07/13 05:02:36;;;;;;;13.98;12.52;;;25.30;99.90;;;;;;5029512;28;20041;-72
2021/07/13 05:05:02;;;;;;;18.48;13.85;;;25.20;99.90;;;;;;5041571;28;20383;-72
2021/07/13 05:07:28;;;;;;;15.07;13.57;;;25.20;99.90;;;;;;5034871;28;20033;-72
2021/07/13 05:09:54;;;;;;;13.55;12.25;;;25.10;99.90;;;;;;5043333;28;20033;-72
2021/07/13 05:12:20;;;;;;;13.95;12.35;;;25.00;99.90;;;;;;5047305;28;20535;-72
2021/07/13 05:14:45;;;;;;;14.60;12.05;;;25.10;99.90;;;;;;5030265;28;20064;-72
2021/07/13 05:17:12;;;;;;;14.25;12.10;;;25.10;99.90;;;;;;5055655;28;20063;-71
2021/07/13 05:19:39;;;;;;;18.77;12.68;;;25.20;99.90;;;;;;5021223;28;20040;-71
2021/07/13 05:22:08;;;;;;;18.00;12.95;;;25.20;99.90;;;;;;5044408;28;20039;-72
2021/07/13 05:24:33;;;;;;;16.77;12.05;;;25.30;99.90;;;;;;5041719;28;20045;-71
2021/07/13 05:26:59;;;;;;;13.77;12.27;;;25.30;99.90;;;;;;5026904;28;20039;-72
2021/07/13 05:29:25;;;;;;;13.93;11.90;;;25.30;99.90;;;;;;5041246;28;20090;-72
2021/07/13 05:31:51;;;;;;;13.73;11.98;;;25.40;99.90;;;;;;5049058;28;20397;-72
2021/07/13 05:34:17;;;;;;;11.70;10.48;;;25.40;99.90;;;;;;5036336;28;20041;-72
2021/07/13 05:36:42;;;;;;;13.63;11.45;;;25.40;99.90;;;;;;5042769;28;20403;-72
2021/07/13 05:39:09;;;;;;;12.98;11.63;;;25.10;99.90;;;;;;5034014;28;20060;-72
2021/07/13 05:41:35;;;;;;;14.02;11.50;;;25.10;99.90;;;;;;5044474;28;20034;-73
2021/07/13 05:44:06;;;;;;;18.20;11.77;;;25.00;99.90;;;;;;5026545;28;20045;-73
2021/07/13 05:46:31;;;;;;;17.50;11.88;;;25.00;99.90;;;;;;5024742;28;20450;-72
2021/07/13 05:48:57;;;;;;;11.57;10.35;;;25.10;99.90;;;;;;5021610;28;20030;-73
2021/07/13 05:51:23;;;;;;;11.65;8.85;;;25.20;99.90;;;;;;5032092;28;20087;-73
2021/07/13 05:53:48;;;;;;;12.40;9.38;;;25.40;99.90;;;;;;5030510;28;20041;-71
2021/07/13 05:56:14;;;;;;;12.63;10.02;;;25.40;99.90;;;;;;5031248;28;20460;-71
2021/07/13 05:58:40;;;;;;;16.02;8.73;;;25.40;99.90;;;;;;5033142;28;20041;-72
2021/07/13 06:01:06;;;;;;;11.05;8.85;;;25.40;99.90;;;;;;5039090;28;20164;-72
2021/07/13 06:03:32;;;;;;;14.05;8.77;;;25.50;99.90;;;;;;5045915;28;20036;-72
2021/07/13 06:05:58;;;;;;;11.30;9.13;;;25.60;99.90;;;;;;5028667;28;20042;-71
2021/07/13 06:08:24;;;;;;;11.88;7.90;;;25.70;99.90;;;;;;5028471;28;20095;-72
2021/07/13 06:10:50;;;;;;;11.77;7.90;;;25.70;99.90;;;;;;5033245;28;20055;-71
2021/07/13 06:13:16;;;;;;;9.60;7.72;;;25.80;99.90;;;;;;5020938;28;20041;-71
2021/07/13 06:15:41;;;;;;;11.40;7.72;;;25.80;99.90;;;;;;5016629;28;20045;-71
2021/07/13 06:18:07;;;;;;;13.43;8.55;;;25.90;99.90;;;;;;5049136;28;20040;-71
2021/07/13 06:20:35;;;;;;;12.18;8.27;;;25.90;99.90;;;;;;5041640;28;20045;-71
2021/07/13 06:23:00;;;;;;;14.13;8.00;;;25.80;99.90;;;;;;5048890;28;20080;-71
2021/07/13 06:25:26;;;;;;;16.00;7.90;;;25.90;99.90;;;;;;5025025;28;20414;-71
2021/07/13 06:27:52;;;;;;;7.97;7.13;;;25.90;99.90;;;;;;5033837;28;20111;-70
2021/07/13 06:30:18;;;;;;;16.63;8.48;;;25.90;99.90;;;;;;5034871;28;20112;-70
2021/07/13 06:32:44;;;;;;;13.18;8.57;;;25.90;99.90;;;;;;5036583;28;20101;-69
2021/07/13 06:35:11;;;;;;;12.82;7.90;;;25.80;99.90;;;;;;5034363;28;20033;-71
2021/07/13 06:37:36;;;;;;;11.43;8.30;;;25.80;99.90;;;;;;5036557;28;20136;-71
2021/07/13 06:40:05;;;;;;;16.77;7.40;;;25.80;99.90;;;;;;5032881;28;20113;-71
2021/07/13 06:42:30;;;;;;;9.60;7.97;;;25.80;99.90;;;;;;5025131;28;20037;-71
2021/07/13 06:44:56;;;;;;;13.30;8.18;;;25.90;99.90;;;;;;5032007;28;20045;-70
2021/07/13 06:47:21;;;;;;;14.80;8.23;;;26.00;99.90;;;;;;5031219;28;20654;-72
2021/07/13 06:49:47;;;;;;;11.15;8.07;;;26.00;99.90;;;;;;5052046;28;20052;-70
2021/07/13 06:52:14;;;;;;;13.07;8.13;;;25.90;99.90;;;;;;5041361;28;20037;-70
2021/07/13 06:54:40;;;;;;;9.15;6.72;;;26.00;99.90;;;;;;5029514;28;20453;-70
2021/07/13 06:57:05;;;;;;;10.40;7.80;;;26.00;99.90;;;;;;5034181;28;20065;-71
2021/07/13 06:59:33;;;;;;;10.90;7.75;;;26.10;99.90;;;;;;5048577;28;20033;-70
2021/07/13 07:01:59;;;;;;;15.23;8.05;;;26.00;99.90;;;;;;5038889;28;20521;-71
2021/07/13 07:04:25;;;;;;;9.63;7.30;;;26.10;99.90;;;;;;5028783;28;20117;-70
2021/07/13 07:06:50;;;;;;;9.20;7.28;;;26.40;99.90;;;;;;5028173;28;20403;-71
2021/07/13 07:09:16;;;;;;;14.35;7.18;;;26.60;99.90;;;;;;5028474;28;20037;-70
2021/07/13 07:11:42;;;;;;;9.95;7.40;;;26.50;99.90;;;;;;5028793;28;20063;-70
2021/07/13 07:14:07;;;;;;;11.02;7.13;;;26.50;99.90;;;;;;5026918;28;20033;-71
2021/07/13 07:16:33;;;;;;;10.45;7.20;;;26.50;99.90;;;;;;5034567;28;20049;-71
2021/07/13 07:18:58;;;;;;;10.88;8.35;;;26.70;99.90;;;;;;5022728;28;20128;-71
2021/07/13 07:21:24;;;;;;;14.48;9.70;;;26.80;99.90;;;;;;5053035;28;20029;-70
2021/07/13 07:23:49;;;;;;;12.45;9.63;;;26.80;99.90;;;;;;5028417;28;20115;-71
2021/07/13 07:29:37;;;;;;;16.52;11.13;;;27.20;99.90;;;;;;5005046;28;20047;-71
2021/07/13 07:32:03;;;;;;;17.70;10.18;;;27.20;99.90;;;;;;5040165;28;20041;-71
2021/07/13 07:34:28;;;;;;;10.98;9.57;;;27.20;99.90;;;;;;5042477;28;20041;-71
2021/07/13 07:36:54;;;;;;;11.48;8.85;;;27.50;99.90;;;;;;5033118;28;20561;-70
2021/07/13 07:39:20;;;;;;;12.60;8.63;;;27.80;99.90;;;;;;5027526;28;20411;-70
2021/07/13 07:41:45;;;;;;;10.35;8.80;;;28.00;99.90;;;;;;5044694;28;20044;-70
2021/07/13 07:44:11;;;;;;;8.45;7.47;;;28.10;99.90;;;;;;5033231;28;20039;-70
2021/07/13 07:46:41;;;;;;;10.95;6.95;;;27.90;99.90;;;;;;5056767;28;20194;-70
2021/07/13 07:49:07;;;;;;;7.43;6.22;;;27.90;99.90;;;;;;5031728;28;20037;-70
2021/07/13 07:51:33;;;;;;;17.13;7.50;;;27.60;99.90;;;;;;5044140;28;20047;-70
2021/07/13 07:53:58;;;;;;;6.40;5.75;;;27.70;99.90;;;;;;5033674;28;20048;-70
2021/07/13 07:56:24;;;;;;;10.88;6.35;;;27.60;99.90;;;;;;5034726;28;20049;-70
2021/07/13 07:58:50;;;;;;;8.25;6.28;;;27.40;99.90;;;;;;5027251;28;20037;-70
2021/07/13 08:01:17;;;;;;;11.30;7.22;;;27.40;99.90;;;;;;5028342;28;20041;-70
2021/07/13 08:03:43;;;;;;;12.02;7.25;;;27.30;99.90;;;;;;5012006;28;20034;-71
2021/07/13 08:06:08;;;;;;;9.82;7.03;;;27.30;99.90;;;;;;5043371;28;20441;-71
2021/07/13 08:08:34;;;;;;;14.40;8.05;;;27.10;99.90;;;;;;5046681;28;20040;-70
2021/07/13 08:10:59;;;;;;;9.73;7.63;;;27.20;99.90;;;;;;5059816;28;20079;-70
2021/07/13 08:13:25;;;;;;;12.88;8.30;;;27.20;99.90;;;;;;5035110;28;20047;-70
2021/07/13 08:15:51;;;;;;;9.38;7.78;;;27.20;99.90;;;;;;5024704;28;20060;-71
2021/07/13 08:18:19;;;;;;;14.10;7.20;;;27.30;99.90;;;;;;5053551;28;20726;-70
2021/07/13 08:20:45;;;;;;;10.20;8.30;;;27.40;99.90;;;;;;5034241;28;20502;-69
2021/07/13 08:23:10;;;;;;;9.85;8.93;;;27.20;99.90;;;;;;5029314;28;20132;-70
2021/07/13 08:25:36;;;;;;;13.35;9.88;;;27.20;99.90;;;;;;5015265;28;20164;-70
2021/07/13 08:28:02;;;;;;;14.05;11.23;;;27.10;99.90;;;;;;5036222;28;20383;-71
2021/07/13 08:30:30;;;;;;;17.48;14.50;;;26.70;99.90;;;;;;5038830;28;20034;-70
2021/07/13 08:32:56;;;;;;;24.67;16.95;;;26.60;99.90;;;;;;5039726;28;20094;-71
2021/07/13 08:35:22;;;;;;;26.40;17.02;;;26.40;99.90;;;;;;5044273;28;20406;-72
2021/07/13 08:37:49;;;;;;;23.17;15.40;;;25.10;99.90;;;;;;5041569;28;20049;-71
2021/07/13 08:40:25;;;;;;;29.02;19.75;;;24.50;99.90;;;;;;5046409;28;20040;-72
2021/07/13 08:42:51;;;;;;;28.70;20.58;;;24.00;99.90;;;;;;5038278;28;20049;-73
2021/07/13 08:45:18;;;;;;;34.80;24.55;;;23.90;99.90;;;;;;5046757;28;20044;-72
2021/07/13 08:47:45;;;;;;;23.50;19.30;;;23.80;99.90;;;;;;5038284;28;20097;-60
2021/07/13 08:50:13;;;;;;;27.48;23.00;;;23.80;99.90;;;;;;5041843;28;20071;-73
2021/07/13 08:52:39;;;;;;;25.45;20.23;;;23.90;99.90;;;;;;5041110;28;20044;-73
2021/07/13 08:55:07;;;;;;;24.05;20.85;;;24.00;99.90;;;;;;5046580;28;20041;-73
2021/07/13 08:57:32;;;;;;;25.15;21.77;;;24.10;99.90;;;;;;5029204;28;20041;-73
2021/07/13 08:59:58;;;;;;;25.00;18.60;;;24.10;99.90;;;;;;5039971;28;20782;-73
2021/07/13 09:02:24;;;;;;;25.30;21.85;;;24.00;99.90;;;;;;5030943;28;20041;-73
2021/07/13 09:04:50;;;;;;;21.33;19.23;;;24.10;99.90;;;;;;5028795;28;20057;-71
2021/07/13 09:07:19;;;;;;;19.75;17.65;;;24.10;99.90;;;;;;5043937;28;20041;-71
2021/07/13 09:09:52;;;;;;;19.48;17.58;;;24.20;99.90;;;;;;5042139;28;20542;-72
2021/07/13 09:12:20;;;;;;;19.45;14.82;;;24.30;99.90;;;;;;5045387;28;20115;-72
2021/07/13 09:15:07;;;;;;;19.90;15.82;;;24.70;99.90;;;;;;5045281;28;20487;-72
2021/07/13 09:17:39;;;;;;;17.50;15.88;;;24.90;99.90;;;;;;5026888;28;21333;-72
2021/07/13 09:20:23;;;;;;;17.25;15.18;;;24.90;99.90;;;;;;5031227;28;20037;-72
2021/07/13 09:23:12;;;;;;;16.77;14.95;;;24.90;99.90;;;;;;4991932;28;20030;-70
2021/07/13 09:25:44;;;;;;;17.98;16.10;;;24.80;99.90;;;;;;5025866;28;20033;-72
2021/07/13 09:28:20;;;;;;;14.88;13.35;;;25.00;99.90;;;;;;5034905;28;20080;-72
2021/07/13 09:30:59;;;;;;;18.05;14.60;;;24.90;99.90;;;;;;5031293;28;20044;-71
2021/07/13 09:33:27;;;;;;;15.80;14.20;;;25.00;99.90;;;;;;5025867;28;20403;-71
2021/07/13 09:36:08;;;;;;;19.38;16.15;;;25.30;99.90;;;;;;5036435;28;20042;-71
2021/07/13 09:38:54;;;;;;;18.05;16.08;;;25.50;99.90;;;;;;5012919;28;20051;-72
2021/07/13 09:41:26;;;;;;;16.73;14.98;;;25.30;99.90;;;;;;5014404;28;20045;-71
2021/07/13 09:44:10;;;;;;;19.38;16.38;;;25.30;99.90;;;;;;5030234;28;20044;-71
2021/07/13 09:46:46;;;;;;;15.68;14.07;;;25.50;99.90;;;;;;5043584;28;20040;-72
2021/07/13 09:49:23;;;;;;;18.05;14.75;;;25.70;99.90;;;;;;5026976;28;20041;-72
2021/07/13 09:51:59;;;;;;;17.55;14.82;;;25.80;99.90;;;;;;4999872;28;20085;-72
2021/07/13 09:54:34;;;;;;;14.48;12.98;;;26.00;99.90;;;;;;5032251;28;20087;-72
2021/07/13 09:57:07;;;;;;;25.88;18.35;;;26.20;99.90;;;;;;5037552;28;20049;-71
2021/07/13 09:59:33;;;;;;;18.30;14.43;;;26.40;99.90;;;;;;5027161;28;20111;-71
2021/07/13 10:02:02;;;;;;;20.48;14.55;;;26.50;99.90;;;;;;5030020;28;20498;-71
2021/07/13 10:04:30;;;;;;;14.63;13.05;;;26.50;99.90;;;;;;5026361;28;20057;-72
2021/07/13 10:07:00;;;;;;;12.75;11.43;;;26.60;99.90;;;;;;5038480;28;20047;-72
2021/07/13 10:09:31;;;;;;;11.00;9.85;;;26.70;99.90;;;;;;5031076;28;20449;-71
2021/07/13 10:11:57;;;;;;;12.10;9.40;;;26.90;99.90;;;;;;5031870;28;20037;-72
2021/07/13 10:14:23;;;;;;;25.55;21.02;;;27.10;99.90;;;;;;5038756;28;20415;-71
2021/07/13 10:16:51;;;;;;;14.25;12.77;;;27.10;99.90;;;;;;5051865;28;20041;-71
2021/07/13 10:19:17;;;;;;;10.65;9.63;;;27.10;99.90;;;;;;5049913;28;20041;-70
2021/07/13 10:21:46;;;;;;;11.07;7.22;;;27.20;99.90;;;;;;5032489;28;20037;-71
2021/07/13 10:24:13;;;;;;;8.60;5.88;;;27.40;99.90;;;;;;5044676;28;20087;-71
2021/07/13 10:26:47;;;;;;;8.98;5.82;;;27.50;99.90;;;;;;5037272;28;20124;-71
2021/07/13 10:29:31;;;;;;;12.98;11.65;;;27.60;99.90;;;;;;5034975;28;20035;-71
2021/07/13 10:31:58;;;;;;;8.45;7.45;;;27.70;99.90;;;;;;5000300;28;20040;-71
2021/07/13 10:34:53;;;;;;;8.60;7.80;;;27.80;99.90;;;;;;5043758;28;20033;-71
2021/07/13 10:37:30;;;;;;;8.88;7.68;;;27.90;99.90;;;;;;5055033;28;20065;-71
2021/07/13 10:40:12;;;;;;;8.68;7.55;;;27.90;99.90;;;;;;5047011;28;20037;-72
2021/07/13 10:42:41;;;;;;;11.05;9.05;;;28.10;99.90;;;;;;5035543;28;20033;-72
2021/07/13 10:45:37;;;;;;;11.70;10.45;;;28.10;99.90;;;;;;5037814;28;20033;-72
2021/07/13 10:48:20;;;;;;;14.02;10.98;;;27.90;99.90;;;;;;5017516;28;20033;-72
2021/07/13 10:50:48;;;;;;;10.98;9.75;;;28.30;99.90;;;;;;5023460;28;20414;-71
2021/07/13 10:53:21;;;;;;;9.80;8.90;;;28.30;99.90;;;;;;5039701;28;20106;-60
2021/07/13 10:56:25;;;;;;;11.65;8.75;;;28.20;99.90;;;;;;5037560;28;20039;-71
2021/07/13 10:58:52;;;;;;;9.30;7.50;;;28.20;99.90;;;;;;5004882;28;20442;-72
2021/07/13 11:01:21;;;;;;;9.63;7.28;;;28.50;99.90;;;;;;5041800;28;20486;-71
2021/07/13 11:03:46;;;;;;;6.97;6.03;;;29.10;99.90;;;;;;5042019;28;20406;-71
2021/07/13 11:06:17;;;;;;;5.95;3.63;;;30.10;99.90;;;;;;5038900;28;20037;-71
2021/07/13 11:08:52;;;;;;;8.15;4.03;;;31.40;94.10;;;;;;5039089;28;20380;-71
2021/07/13 11:11:20;;;;;;;7.63;4.50;;;32.70;89.60;;;;;;5028517;28;20041;-71
2021/07/13 11:13:54;;;;;;;6.72;4.07;;;33.40;80.10;;;;;;5033272;28;20041;-71
2021/07/13 11:16:28;;;;;;;6.85;4.43;;;34.30;72.30;;;;;;5033187;28;20509;-71
2021/07/13 11:18:56;;;;;;;5.63;4.05;;;35.40;65.30;;;;;;5033166;28;20124;-71
2021/07/13 11:21:30;;;;;;;4.30;3.88;;;35.20;65.10;;;;;;5047586;28;20183;-71
2021/07/13 11:24:09;;;;;;;6.03;4.63;;;34.20;65.10;;;;;;5030342;28;20541;-71
2021/07/13 11:26:40;;;;;;;6.10;4.93;;;33.90;68.00;;;;;;5046018;28;20049;-71
2021/07/13 11:29:16;;;;;;;9.30;5.57;;;33.00;73.90;;;;;;5042737;28;20094;-72
2021/07/13 11:31:45;;;;;;;6.47;5.10;;;32.50;76.80;;;;;;5038160;28;20535;-71
2021/07/13 11:34:13;;;;;;;6.70;4.78;;;31.40;84.00;;;;;;5034147;28;20047;-71
2021/07/13 11:36:43;;;;;;;9.27;6.80;;;30.90;90.70;;;;;;5035802;28;20074;-72
2021/07/13 11:39:11;;;;;;;5.00;4.55;;;31.30;90.20;;;;;;5032231;28;20037;-71
2021/07/13 11:41:38;;;;;;;7.45;5.55;;;30.80;88.10;;;;;;5031121;28;20533;-71
2021/07/13 11:44:07;;;;;;;6.78;4.57;;;30.60;91.30;;;;;;5028796;28;20033;-71
2021/07/13 11:46:38;;;;;;;8.35;4.40;;;31.00;89.80;;;;;;5039260;28;20065;-71
2021/07/13 11:49:10;;;;;;;5.53;4.00;;;31.80;82.10;;;;;;5040112;28;20046;-71
2021/07/13 11:51:57;;;;;;;7.93;3.90;;;31.90;79.60;;;;;;5031731;28;20033;-71
2021/07/13 11:54:34;;;;;;;4.60;3.65;;;32.20;72.80;;;;;;5001785;28;20037;-70
2021/07/13 11:57:02;;;;;;;4.63;4.05;;;32.30;74.70;;;;;;5042012;28;20054;-71
2021/07/13 11:59:30;;;;;;;4.80;4.30;;;32.10;79.10;;;;;;5045697;28;20086;-71
2021/07/13 12:02:01;;;;;;;8.07;5.07;;;32.20;77.90;;;;;;5048935;28;20040;-72
2021/07/13 12:04:28;;;;;;;7.13;5.68;;;32.30;76.90;;;;;;5041938;28;20078;-71
2021/07/13 12:07:03;;;;;;;6.72;6.10;;;32.90;78.10;;;;;;5045460;28;20184;-69
2021/07/13 12:09:34;;;;;;;8.98;5.85;;;34.40;69.80;;;;;;5043135;28;20526;-71
2021/07/13 12:12:04;;;;;;;8.40;6.78;;;36.30;63.60;;;;;;5031173;28;20507;-71
2021/07/13 12:14:30;;;;;;;8.32;7.55;;;37.20;65.90;;;;;;5022805;28;20483;-71
2021/07/13 12:16:57;;;;;;;9.57;7.90;;;37.40;57.80;;;;;;5035631;28;20057;-71
2021/07/13 12:19:26;;;;;;;7.93;6.68;;;37.00;58.40;;;;;;5022835;28;20025;-70
2021/07/13 12:22:00;;;;;;;8.20;7.13;;;35.40;60.90;;;;;;5034298;28;20056;-70
2021/07/13 12:24:36;;;;;;;7.68;6.35;;;34.50;64.90;;;;;;5042664;28;20057;-71
2021/07/13 12:27:05;;;;;;;5.60;5.20;;;35.10;61.40;;;;;;5032266;28;20490;-71
2021/07/13 12:29:53;;;;;;;7.18;4.75;;;34.20;63.40;;;;;;5031187;28;20125;-70
2021/07/13 12:32:21;;;;;;;5.63;4.38;;;34.00;61.80;;;;;;5057210;28;20124;-70
2021/07/13 12:34:49;;;;;;;5.10;4.63;;;33.70;62.20;;;;;;5019505;28;20041;-61
2021/07/13 12:37:16;;;;;;;7.22;4.38;;;33.20;64.80;;;;;;5032426;28;20180;-56
2021/07/13 12:39:50;;;;;;;5.90;5.30;;;34.20;60.50;;;;;;5028627;28;20083;-70
2021/07/13 12:42:23;;;;;;;9.38;5.60;;;34.90;59.60;;;;;;5028885;28;20040;-70
2021/07/13 12:44:57;;;;;;;5.07;4.63;;;35.10;58.80;;;;;;5030254;28;20148;-70
2021/07/13 12:47:27;;;;;;;4.90;4.50;;;35.70;57.10;;;;;;5049836;28;20037;-70
2021/07/13 12:50:08;;;;;;;4.63;3.95;;;36.80;54.70;;;;;;5041773;28;20917;-70